createdAt,value
2023-05-01T00:01:00.241Z,7.65
2023-05-01T00:03:28.081Z,7.57
2023-05-01T00:06:00.566Z,7.90
2023-05-01T00:08:27.968Z,7.43
2023-05-01T00:10:55.922Z,7.15
2023-05-01T00:13:24.465Z,7.22
2023-05-01T00:15:52.333Z,7.82
2023-05-01T00:18:19.598Z,8.38
2023-05-01T00:20:47.018Z,8.48
2023-05-01T00:23:14.240Z,9.82
2023-05-01T00:25:41.449Z,8.68
2023-05-01T00:28:08.838Z,8.70
2023-05-01T00:30:36.670Z,8.00
2023-05-01T00:33:03.917Z,8.07
2023-05-01T00:35:31.303Z,7.72
2023-05-01T00:37:58.686Z,7.85
2023-05-01T00:40:25.860Z,8.23
2023-05-01T00:42:53.040Z,7.43
2023-05-01T00:45:20.232Z,8.35
2023-05-01T00:47:48.014Z,7.95
2023-05-01T00:50:15.704Z,8.38
2023-05-01T00:52:42.920Z,8.43
2023-05-01T00:55:10.195Z,8.25
2023-05-01T00:57:37.799Z,7.72
2023-05-01T01:00:05.456Z,9.15
2023-05-01T01:02:32.982Z,8.63
2023-05-01T01:05:00.353Z,8.48
2023-05-01T01:07:30.695Z,9.07
2023-05-01T01:10:18.373Z,8.63
2023-05-01T01:13:04.596Z,9.57
2023-05-01T01:15:37.158Z,9.38
2023-05-01T01:18:07.574Z,9.93
2023-05-01T01:20:44.275Z,8.57
2023-05-01T01:23:26.457Z,8.00
2023-05-01T01:26:12.798Z,8.75
2023-05-01T01:28:55.479Z,8.48
2023-05-01T01:31:23.647Z,8.93
2023-05-01T01:33:57.200Z,8.48
2023-05-01T01:36:34.769Z,9.48
2023-05-01T01:39:06.754Z,9.13
2023-05-01T01:41:37.841Z,9.38
2023-05-01T01:44:08.636Z,9.57
2023-05-01T01:46:37.996Z,9.82
2023-05-01T01:49:07.729Z,9.98
2023-05-01T01:51:36.520Z,9.43
2023-05-01T01:54:05.215Z,9.50
2023-05-01T01:56:33.960Z,9.02
2023-05-01T01:59:02.602Z,9.38
2023-05-01T02:01:30.139Z,8.90
2023-05-01T02:03:58.090Z,9.50
2023-05-01T02:06:26.182Z,9.35
2023-05-01T02:08:54.395Z,8.35
2023-05-01T02:11:22.680Z,9.02
2023-05-01T02:13:50.765Z,8.43
2023-05-01T02:16:18.627Z,8.50
2023-05-01T02:18:46.998Z,8.57
2023-05-01T02:21:15.143Z,9.20
2023-05-01T02:23:43.196Z,9.00
2023-05-01T02:26:13.691Z,9.13
2023-05-01T02:28:41.481Z,8.85
2023-05-01T02:31:08.780Z,9.32
2023-05-01T02:33:35.971Z,9.07
2023-05-01T02:36:05.225Z,9.60
2023-05-01T02:38:32.769Z,9.63
2023-05-01T02:41:01.372Z,9.77
2023-05-01T02:43:29.640Z,9.30
2023-05-01T02:45:59.159Z,9.77
2023-05-01T02:48:27.888Z,9.30
2023-05-01T02:50:56.195Z,9.18
2023-05-01T02:53:23.653Z,10.00
2023-05-01T02:55:51.368Z,10.80
2023-05-01T02:58:19.161Z,10.25
2023-05-01T03:00:47.220Z,9.90
2023-05-01T03:03:14.561Z,11.52
2023-05-01T03:05:42.169Z,10.13
2023-05-01T03:08:10.787Z,10.10
2023-05-01T03:10:42.631Z,11.20
2023-05-01T03:13:10.984Z,12.05
2023-05-01T03:15:38.664Z,10.73
2023-05-01T03:18:06.573Z,10.15
2023-05-01T03:20:34.082Z,13.90
2023-05-01T03:23:01.578Z,15.23
2023-05-01T03:25:28.762Z,14.82
2023-05-01T03:27:56.173Z,13.50
2023-05-01T03:30:23.374Z,16.13
2023-05-01T03:32:51.950Z,21.67
2023-05-01T03:35:19.392Z,16.80
2023-05-01T03:37:46.634Z,15.93
2023-05-01T03:40:14.000Z,16.95
2023-05-01T03:42:41.436Z,11.65
2023-05-01T03:45:09.170Z,10.52
2023-05-01T03:47:36.510Z,10.50
2023-05-01T03:50:03.992Z,10.88
2023-05-01T03:52:31.208Z,11.18
2023-05-01T03:54:58.375Z,11.15
2023-05-01T03:57:25.742Z,11.27
2023-05-01T03:59:53.283Z,11.90
2023-05-01T04:02:20.792Z,12.77
2023-05-01T04:04:48.079Z,12.73
2023-05-01T04:07:15.274Z,13.00
2023-05-01T04:09:42.681Z,12.15
2023-05-01T04:12:09.895Z,13.60
2023-05-01T04:14:37.100Z,12.98
2023-05-01T04:17:04.319Z,12.77
2023-05-01T04:19:31.442Z,13.00
2023-05-01T04:21:58.605Z,12.70
2023-05-01T04:24:25.840Z,13.82
2023-05-01T04:26:52.996Z,12.20
2023-05-01T04:29:20.582Z,13.30
2023-05-01T04:31:47.996Z,12.70
2023-05-01T04:34:16.023Z,14.65
2023-05-01T04:36:43.150Z,14.35
2023-05-01T04:39:10.830Z,15.32
2023-05-01T04:41:38.079Z,15.60
2023-05-01T04:44:05.318Z,16.67
2023-05-01T04:46:33.495Z,17.48
2023-05-01T04:49:00.929Z,16.00
2023-05-01T04:51:29.052Z,15.93
2023-05-01T04:53:56.180Z,15.77
2023-05-01T04:56:23.402Z,15.02
2023-05-01T04:58:50.548Z,16.45
2023-05-01T05:01:17.757Z,15.70
2023-05-01T05:03:47.980Z,16.08
2023-05-01T05:06:17.037Z,15.07
2023-05-01T05:08:44.262Z,15.52
2023-05-01T05:11:11.711Z,17.13
2023-05-01T05:13:38.873Z,17.48
2023-05-01T05:16:06.258Z,16.83
2023-05-01T05:18:33.394Z,17.98
2023-05-01T05:21:03.608Z,19.35
2023-05-01T05:23:31.209Z,15.98
2023-05-01T05:26:01.612Z,14.70
2023-05-01T05:28:28.982Z,13.32
2023-05-01T05:30:56.720Z,12.07
2023-05-01T05:33:25.094Z,10.95
2023-05-01T05:35:52.905Z,9.82
2023-05-01T05:38:20.385Z,8.98
2023-05-01T05:40:47.663Z,8.13
2023-05-01T05:43:14.887Z,8.88
2023-05-01T05:45:42.291Z,8.52
2023-05-01T05:48:09.547Z,8.00
2023-05-01T05:50:36.717Z,8.73
2023-05-01T05:53:03.868Z,7.97
2023-05-01T05:55:31.298Z,8.65
2023-05-01T05:57:58.408Z,8.32
2023-05-01T06:00:25.776Z,8.75
2023-05-01T06:02:53.054Z,8.90
2023-05-01T06:05:20.663Z,8.68
2023-05-01T06:07:47.986Z,8.90
2023-05-01T06:10:15.368Z,9.02
2023-05-01T06:12:45.146Z,8.60
2023-05-01T06:15:20.121Z,8.93
2023-05-01T06:17:47.445Z,8.10
2023-05-01T06:20:14.904Z,9.07
2023-05-01T06:22:42.109Z,9.20
2023-05-01T06:25:09.807Z,8.68
2023-05-01T06:27:37.046Z,8.27
2023-05-01T06:30:04.406Z,8.23
2023-05-01T06:32:31.632Z,8.75
2023-05-01T06:34:58.838Z,9.20
2023-05-01T06:37:25.952Z,9.32
2023-05-01T06:39:53.111Z,9.20
2023-05-01T06:42:21.629Z,9.82
2023-05-01T06:44:48.802Z,10.23
2023-05-01T06:47:15.996Z,10.82
2023-05-01T06:49:43.748Z,9.75
2023-05-01T06:52:11.687Z,11.05
2023-05-01T06:54:38.940Z,12.63
2023-05-01T06:57:06.186Z,10.43
2023-05-01T06:59:33.376Z,11.00
2023-05-01T07:02:00.965Z,11.15
2023-05-01T07:04:28.197Z,11.52
2023-05-01T07:06:55.346Z,11.93
2023-05-01T07:09:22.569Z,10.02
2023-05-01T07:11:49.717Z,9.23
2023-05-01T07:14:17.228Z,9.02
2023-05-01T07:16:44.617Z,8.88
2023-05-01T07:19:13.802Z,8.35
2023-05-01T07:21:41.834Z,10.00
2023-05-01T07:24:09.960Z,9.00
2023-05-01T07:26:38.651Z,8.35
2023-05-01T07:29:06.183Z,8.45
2023-05-01T07:31:33.354Z,8.25
2023-05-01T07:34:00.506Z,7.90
2023-05-01T07:36:28.287Z,8.27
2023-05-01T07:38:56.727Z,8.88
2023-05-01T07:41:25.371Z,7.55
2023-05-01T07:43:53.167Z,8.27
2023-05-01T07:46:20.423Z,6.47
2023-05-01T07:48:47.622Z,7.60
2023-05-01T07:51:14.824Z,6.55
2023-05-01T07:53:42.426Z,6.53
2023-05-01T07:56:10.200Z,6.47
2023-05-01T07:58:37.701Z,6.13
2023-05-01T08:01:06.619Z,5.95
2023-05-01T08:03:33.852Z,6.38
2023-05-01T08:06:01.207Z,5.57
2023-05-01T08:08:28.487Z,5.05
2023-05-01T08:10:56.282Z,5.30
2023-05-01T08:13:23.572Z,5.78
2023-05-01T08:15:51.036Z,5.47
2023-05-01T08:18:21.375Z,5.90
2023-05-01T08:20:49.465Z,5.47
2023-05-01T08:23:19.884Z,4.35
2023-05-01T08:25:47.183Z,4.80
2023-05-01T08:28:15.368Z,3.83
2023-05-01T08:30:42.575Z,4.07
2023-05-01T08:33:09.770Z,4.35
2023-05-01T08:35:36.966Z,3.70
2023-05-01T08:38:04.171Z,3.83
2023-05-01T08:40:33.001Z,3.47
2023-05-01T08:43:03.380Z,2.97
2023-05-01T08:45:36.045Z,3.22
2023-05-01T08:48:07.329Z,3.10
2023-05-01T08:50:38.200Z,2.85
2023-05-01T08:53:06.413Z,3.42
2023-05-01T08:55:35.439Z,2.75
2023-05-01T08:58:03.653Z,2.75
2023-05-01T09:00:31.701Z,3.03
2023-05-01T09:03:02.134Z,3.40
2023-05-01T09:05:32.368Z,4.65
2023-05-01T09:07:59.733Z,4.82
2023-05-01T09:10:27.432Z,3.80
2023-05-01T09:12:58.761Z,4.32
2023-05-01T09:15:30.502Z,5.00
2023-05-01T09:18:03.176Z,4.15
2023-05-01T09:20:32.734Z,4.15
2023-05-01T09:23:00.053Z,4.15
2023-05-01T09:25:27.248Z,3.97
2023-05-01T09:27:55.105Z,4.10
2023-05-01T09:30:32.600Z,3.75
2023-05-01T09:33:08.967Z,3.75
2023-05-01T09:35:52.260Z,4.30
2023-05-01T09:38:20.362Z,3.78
2023-05-01T09:40:47.676Z,2.75
2023-05-01T09:43:14.870Z,2.70
2023-05-01T09:45:43.169Z,2.80
2023-05-01T09:48:11.804Z,2.35
2023-05-01T09:50:42.425Z,1.80
2023-05-01T09:53:11.312Z,2.00
2023-05-01T09:55:38.557Z,2.15
2023-05-01T09:58:06.569Z,2.28
2023-05-01T10:00:48.261Z,2.10
2023-05-01T10:03:15.603Z,2.00
2023-05-01T10:05:46.434Z,1.92
2023-05-01T10:08:15.080Z,1.75
2023-05-01T10:10:47.186Z,1.73
2023-05-01T10:13:18.404Z,1.60
2023-05-01T10:15:50.206Z,2.03
2023-05-01T10:18:18.175Z,3.05
2023-05-01T10:20:45.413Z,3.20
2023-05-01T10:23:12.650Z,1.42
2023-05-01T10:25:40.943Z,1.85
2023-05-01T10:28:09.961Z,5.32
2023-05-01T10:30:38.795Z,3.63
2023-05-01T10:33:06.203Z,8.73
2023-05-01T10:35:34.886Z,2.55
2023-05-01T10:38:24.094Z,14.00
2023-05-01T10:40:51.709Z,2.63
2023-05-01T10:43:20.990Z,4.43
2023-05-01T10:45:49.191Z,3.28
2023-05-01T10:48:36.770Z,4.05
2023-05-01T10:51:11.305Z,9.60
2023-05-01T10:53:42.210Z,18.77
2023-05-01T10:56:28.312Z,13.52
2023-05-01T10:59:04.772Z,3.53
2023-05-01T11:01:42.212Z,28.67
2023-05-01T11:04:27.349Z,5.03
2023-05-01T11:07:04.504Z,6.63
2023-05-01T11:09:39.820Z,9.23
2023-05-01T11:12:07.297Z,2.53
2023-05-01T11:14:53.355Z,22.48
2023-05-01T11:17:39.604Z,2.97
2023-05-01T11:20:27.203Z,4.15
2023-05-01T11:22:55.027Z,2.65
2023-05-01T11:25:23.728Z,2.20
2023-05-01T11:27:52.300Z,2.67
2023-05-01T11:30:19.719Z,2.90
2023-05-01T11:32:47.846Z,5.25
2023-05-01T11:35:22.029Z,2.05
2023-05-01T11:37:51.219Z,2.50
2023-05-01T11:40:22.743Z,2.10
2023-05-01T11:42:50.550Z,1.58
2023-05-01T11:45:18.031Z,1.70
2023-05-01T11:47:45.270Z,2.05
2023-05-01T11:50:12.766Z,2.00
2023-05-01T11:52:48.768Z,1.70
2023-05-01T11:55:16.767Z,2.25
2023-05-01T11:57:51.691Z,2.30
2023-05-01T12:00:29.825Z,2.10
2023-05-01T12:03:04.578Z,1.90
2023-05-01T12:05:32.534Z,2.17
2023-05-01T12:08:19.289Z,2.38
2023-05-01T12:10:48.403Z,1.83
2023-05-01T12:13:16.879Z,2.00
2023-05-01T12:15:46.234Z,1.88
2023-05-01T12:18:14.649Z,2.22
2023-05-01T12:20:42.951Z,2.60
2023-05-01T12:23:11.480Z,2.10
2023-05-01T12:25:39.547Z,2.33
2023-05-01T12:28:11.251Z,2.50
2023-05-01T12:30:39.096Z,2.45
2023-05-01T12:33:10.385Z,2.33
2023-05-01T12:35:37.611Z,2.10
2023-05-01T12:38:23.734Z,2.20
2023-05-01T12:40:52.929Z,2.33
2023-05-01T12:43:30.569Z,2.03
2023-05-01T12:45:57.959Z,2.28
2023-05-01T12:48:25.312Z,2.13
2023-05-01T12:50:55.939Z,1.77
2023-05-01T12:53:27.865Z,2.13
2023-05-01T12:55:56.351Z,1.88
2023-05-01T12:58:23.847Z,2.05
2023-05-01T13:00:55.457Z,2.03
2023-05-01T13:03:24.438Z,7.25
2023-05-01T13:05:59.119Z,2.20
2023-05-01T13:08:27.776Z,2.58
2023-05-01T13:10:57.051Z,2.40
2023-05-01T13:13:26.199Z,2.63
2023-05-01T13:15:53.550Z,5.82
2023-05-01T13:18:20.780Z,2.63
2023-05-01T13:20:47.964Z,2.40
2023-05-01T13:23:15.214Z,2.67
2023-05-01T13:25:42.575Z,2.58
2023-05-01T13:28:11.839Z,2.53
2023-05-01T13:30:39.351Z,2.33
2023-05-01T13:33:07.834Z,2.28
2023-05-01T13:35:35.831Z,2.80
2023-05-01T13:38:04.788Z,2.65
2023-05-01T13:40:34.902Z,2.33
2023-05-01T13:43:02.381Z,2.28
2023-05-01T13:45:29.805Z,2.78
2023-05-01T13:47:57.202Z,2.28
2023-05-01T13:50:24.400Z,3.67
2023-05-01T13:52:51.553Z,2.53
2023-05-01T13:55:18.999Z,2.28
2023-05-01T13:57:46.257Z,2.67
2023-05-01T14:00:17.782Z,2.22
2023-05-01T14:02:47.483Z,2.30
2023-05-01T14:05:16.250Z,1.95
2023-05-01T14:07:51.647Z,2.40
2023-05-01T14:10:19.017Z,2.30
2023-05-01T14:12:46.209Z,2.22
2023-05-01T14:15:13.623Z,2.00
2023-05-01T14:17:41.253Z,2.08
2023-05-01T14:20:08.800Z,2.00
2023-05-01T14:22:43.653Z,2.53
2023-05-01T14:25:27.149Z,2.45
2023-05-01T14:27:54.982Z,2.17
2023-05-01T14:30:26.245Z,2.22
2023-05-01T14:32:53.416Z,2.17
2023-05-01T14:35:22.130Z,2.25
2023-05-01T14:37:49.289Z,2.03
2023-05-01T14:40:18.227Z,2.05
2023-05-01T14:42:46.683Z,2.30
2023-05-01T14:45:15.620Z,1.90
2023-05-01T14:47:46.353Z,2.00
2023-05-01T14:50:15.228Z,2.13
2023-05-01T14:52:42.523Z,2.25
2023-05-01T14:55:11.988Z,2.40
2023-05-01T14:57:39.679Z,2.25
2023-05-01T15:00:07.170Z,2.47
2023-05-01T15:02:34.432Z,2.22
2023-05-01T15:05:01.678Z,2.85
2023-05-01T15:07:28.915Z,2.53
2023-05-01T15:09:56.102Z,2.70
2023-05-01T15:12:23.315Z,3.10
2023-05-01T15:14:50.522Z,3.40
2023-05-01T15:17:18.028Z,2.88
2023-05-01T15:19:45.235Z,3.08
2023-05-01T15:22:12.443Z,3.30
2023-05-01T15:24:39.588Z,3.63
2023-05-01T15:27:07.918Z,3.20
2023-05-01T15:29:35.540Z,3.15
2023-05-01T15:32:12.009Z,3.40
2023-05-01T15:34:41.103Z,3.88
2023-05-01T15:37:08.286Z,3.50
2023-05-01T15:39:35.854Z,3.20
2023-05-01T15:42:03.741Z,3.00
2023-05-01T15:44:31.851Z,3.30
2023-05-01T15:46:59.058Z,3.50
2023-05-01T15:49:26.297Z,3.58
2023-05-01T15:51:54.588Z,3.88
2023-05-01T15:54:21.853Z,3.63
2023-05-01T15:56:49.003Z,4.07
2023-05-01T15:59:16.284Z,4.95
2023-05-01T16:01:43.493Z,4.35
2023-05-01T16:04:10.788Z,4.10
2023-05-01T16:06:38.281Z,5.00
2023-05-01T16:09:05.526Z,4.30
2023-05-01T16:11:32.759Z,4.40
2023-05-01T16:14:00.175Z,5.30
2023-05-01T16:16:28.220Z,4.50
2023-05-01T16:18:56.411Z,4.00
2023-05-01T16:21:24.183Z,4.78
2023-05-01T16:23:52.972Z,4.82
2023-05-01T16:26:22.727Z,5.45
2023-05-01T16:28:50.219Z,5.30
2023-05-01T16:31:27.233Z,5.38
2023-05-01T16:33:56.785Z,4.85
2023-05-01T16:36:23.965Z,9.30
2023-05-01T16:38:51.217Z,8.10
2023-05-01T16:41:18.633Z,8.20
2023-05-01T16:43:46.479Z,8.50
2023-05-01T16:46:16.718Z,7.10
2023-05-01T16:48:43.948Z,5.78
2023-05-01T16:51:11.950Z,5.90
2023-05-01T16:53:39.194Z,5.72
2023-05-01T16:56:06.833Z,6.38
2023-05-01T16:58:33.994Z,5.70
2023-05-01T17:01:01.263Z,6.65
2023-05-01T17:03:28.591Z,5.95
2023-05-01T17:05:55.849Z,5.95
2023-05-01T17:08:22.979Z,6.68
2023-05-01T17:10:50.088Z,6.20
2023-05-01T17:13:17.297Z,5.95
2023-05-01T17:15:44.720Z,6.60
2023-05-01T17:18:12.055Z,6.32
2023-05-01T17:20:39.289Z,7.15
2023-05-01T17:23:06.606Z,6.80
2023-05-01T17:25:33.735Z,6.68
2023-05-01T17:28:00.982Z,6.93
2023-05-01T17:30:29.244Z,7.07
2023-05-01T17:32:57.378Z,60.22
2023-05-01T17:35:24.709Z,15.82
2023-05-01T17:37:51.829Z,8.82
2023-05-01T17:40:19.023Z,9.50
2023-05-01T17:42:46.351Z,8.82
2023-05-01T17:45:13.543Z,8.02
2023-05-01T17:47:42.768Z,7.25
2023-05-01T17:50:11.033Z,8.27
2023-05-01T17:52:38.829Z,8.45
2023-05-01T17:55:06.279Z,8.02
2023-05-01T17:57:33.764Z,7.93
2023-05-01T18:00:01.308Z,7.68
2023-05-01T18:02:29.955Z,7.53
2023-05-01T18:04:57.483Z,8.75
2023-05-01T18:07:24.809Z,8.38
2023-05-01T18:09:51.966Z,8.55
2023-05-01T18:12:19.620Z,8.70
2023-05-01T18:14:46.806Z,8.20
2023-05-01T18:17:14.156Z,10.10
2023-05-01T18:19:41.531Z,9.07
2023-05-01T18:22:08.746Z,8.80
2023-05-01T18:24:35.944Z,8.85
2023-05-01T18:27:03.082Z,10.13
2023-05-01T18:29:30.383Z,10.90
2023-05-01T18:31:57.692Z,10.15
2023-05-01T18:34:25.069Z,9.88
2023-05-01T18:36:52.289Z,10.18
2023-05-01T18:39:21.888Z,8.98
2023-05-01T18:41:49.840Z,9.32
2023-05-01T18:44:17.383Z,9.45
2023-05-01T18:46:44.907Z,9.80
2023-05-01T18:49:12.200Z,9.32
2023-05-01T18:51:39.371Z,11.07
2023-05-01T18:54:07.904Z,11.60
2023-05-01T18:56:35.360Z,11.00
2023-05-01T18:59:02.538Z,10.55
2023-05-01T19:01:29.960Z,11.52
2023-05-01T19:03:59.601Z,11.48
2023-05-01T19:06:27.529Z,11.38
2023-05-01T19:08:54.743Z,11.38
2023-05-01T19:11:21.919Z,10.88
2023-05-01T19:13:49.137Z,10.18
2023-05-01T19:16:16.305Z,11.20
2023-05-01T19:18:43.456Z,10.07
2023-05-01T19:21:11.112Z,10.27
2023-05-01T19:23:39.895Z,10.38
2023-05-01T19:26:08.146Z,10.55
2023-05-01T19:28:36.681Z,10.98
2023-05-01T19:31:04.901Z,10.55
2023-05-01T19:33:32.143Z,9.32
2023-05-01T19:35:59.320Z,10.10
2023-05-01T19:38:26.472Z,9.07
2023-05-01T19:40:53.666Z,10.95
2023-05-01T19:43:20.862Z,9.70
2023-05-01T19:45:48.178Z,9.82
2023-05-01T19:48:15.467Z,10.80
2023-05-01T19:50:50.017Z,10.45
2023-05-01T19:53:17.874Z,10.00
2023-05-01T19:55:47.196Z,10.80
2023-05-01T19:58:15.868Z,10.13
2023-05-01T20:00:43.177Z,11.20
2023-05-01T20:03:10.830Z,11.93
2023-05-01T20:05:38.990Z,11.45
2023-05-01T20:08:06.282Z,11.63
2023-05-01T20:10:34.124Z,10.52
2023-05-01T20:13:01.787Z,12.05
2023-05-01T20:15:29.454Z,12.15
2023-05-01T20:17:57.559Z,12.52
2023-05-01T20:20:24.797Z,11.38
2023-05-01T20:22:52.939Z,10.95
2023-05-01T20:25:20.054Z,12.25
2023-05-01T20:27:47.259Z,10.23
2023-05-01T20:30:14.469Z,9.88
2023-05-01T20:32:44.299Z,11.88
2023-05-01T20:35:11.958Z,11.32
2023-05-01T20:37:39.196Z,11.30
2023-05-01T20:40:07.373Z,11.10
2023-05-01T20:42:34.543Z,11.88
2023-05-01T20:45:01.793Z,11.10
2023-05-01T20:47:29.639Z,10.90
2023-05-01T20:49:57.385Z,10.40
2023-05-01T20:52:25.582Z,10.77
2023-05-01T20:54:52.802Z,10.98
2023-05-01T20:57:19.971Z,11.05
2023-05-01T20:59:48.048Z,10.05
2023-05-01T21:02:16.234Z,10.77
2023-05-01T21:04:43.769Z,10.10
2023-05-01T21:07:11.107Z,9.95
2023-05-01T21:09:38.360Z,10.68
2023-05-01T21:12:08.906Z,10.18
2023-05-01T21:14:36.133Z,9.85
2023-05-01T21:17:03.258Z,10.77
2023-05-01T21:19:30.507Z,9.82
2023-05-01T21:21:57.639Z,10.30
2023-05-01T21:24:25.686Z,9.82
2023-05-01T21:26:56.051Z,10.30
2023-05-01T21:29:23.196Z,10.95
2023-05-01T21:31:50.408Z,10.43
2023-05-01T21:34:19.175Z,9.70
2023-05-01T21:36:46.398Z,10.13
2023-05-01T21:39:13.635Z,9.85
2023-05-01T21:41:41.156Z,9.40
2023-05-01T21:44:08.717Z,9.38
2023-05-01T21:46:36.474Z,9.02
2023-05-01T21:49:03.660Z,8.57
2023-05-01T21:51:32.268Z,9.05
2023-05-01T21:54:02.913Z,8.77
2023-05-01T21:56:30.163Z,8.60
2023-05-01T21:59:05.729Z,8.40
2023-05-01T22:01:33.256Z,8.60
2023-05-01T22:04:00.806Z,9.43
2023-05-01T22:06:28.541Z,10.75
2023-05-01T22:08:56.302Z,11.30
2023-05-01T22:11:24.367Z,9.25
2023-05-01T22:13:51.619Z,9.75
2023-05-01T22:16:18.880Z,10.93
2023-05-01T22:18:48.622Z,10.13
2023-05-01T22:21:17.170Z,9.07
2023-05-01T22:23:44.335Z,9.68
2023-05-01T22:26:11.557Z,10.07
2023-05-01T22:28:38.794Z,10.38
2023-05-01T22:31:05.915Z,10.38
2023-05-01T22:33:33.147Z,10.90
2023-05-01T22:36:00.308Z,10.75
2023-05-01T22:38:27.527Z,10.18
2023-05-01T22:40:54.694Z,10.88
2023-05-01T22:43:21.841Z,9.25
2023-05-01T22:45:49.006Z,9.90
2023-05-01T22:48:16.330Z,9.75
2023-05-01T22:50:43.655Z,10.18
2023-05-01T22:53:10.994Z,9.60
2023-05-01T22:55:38.329Z,9.70
2023-05-01T22:58:05.622Z,9.30
2023-05-01T23:00:32.834Z,8.85
2023-05-01T23:03:00.861Z,9.60
2023-05-01T23:05:28.089Z,9.70
2023-05-01T23:07:55.370Z,10.60
2023-05-01T23:10:24.765Z,10.60
2023-05-01T23:12:51.913Z,12.02
2023-05-01T23:15:23.661Z,12.63
2023-05-01T23:17:51.511Z,14.38
2023-05-01T23:20:25.071Z,13.68
2023-05-01T23:25:24.704Z,11.30
2023-05-01T23:27:52.305Z,14.23
2023-05-01T23:30:21.829Z,15.90
2023-05-01T23:32:49.657Z,15.30
2023-05-01T23:35:19.025Z,15.93
2023-05-01T23:37:46.276Z,15.80
2023-05-01T23:40:13.460Z,15.57
2023-05-01T23:42:40.849Z,14.65
2023-05-01T23:45:09.481Z,14.90
2023-05-01T23:47:37.360Z,14.95
2023-05-01T23:50:04.718Z,14.48
2023-05-01T23:52:32.145Z,14.00
2023-05-01T23:54:59.340Z,13.80
2023-05-01T23:57:27.163Z,11.40
2023-05-01T23:59:54.482Z,10.73
